sensor_id;sensor_type;location;lat;lon;timestamp;P1;durP1;ratioP1;P2;durP2;ratioP2
32250;SDS011;41295;48.518;9.206;2022-12-07T00:00:06;19.88;;;9.77;;
32250;SDS011;41295;48.518;9.206;2022-12-07T00:02:09;16.40;;;9.57;;
32250;SDS011;41295;48.518;9.206;2022-12-07T00:04:12;19.83;;;9.45;;
32250;SDS011;41295;48.518;9.206;2022-12-07T00:06:17;16.10;;;8.98;;
32250;SDS011;41295;48.518;9.206;2022-12-07T00:08:20;18.40;;;9.82;;
32250;SDS011;41295;48.518;9.206;2022-12-07T00:10:23;15.15;;;8.63;;
32250;SDS011;41295;48.518;9.206;2022-12-07T00:12:26;15.32;;;7.90;;
32250;SDS011;41295;48.518;9.206;2022-12-07T00:14:28;16.90;;;8.38;;
32250;SDS011;41295;48.518;9.206;2022-12-07T00:16:33;12.82;;;6.95;;
32250;SDS011;41295;48.518;9.206;2022-12-07T00:18:36;13.35;;;7.43;;
32250;SDS011;41295;48.518;9.206;2022-12-07T00:20:39;12.13;;;7.25;;
32250;SDS011;41295;48.518;9.206;2022-12-07T00:22:42;12.20;;;6.78;;
32250;SDS011;41295;48.518;9.206;2022-12-07T00:24:45;15.00;;;6.78;;
32250;SDS011;41295;48.518;9.206;2022-12-07T00:26:47;10.90;;;6.90;;
32250;SDS011;41295;48.518;9.206;2022-12-07T00:28:51;10.55;;;6.47;;
32250;SDS011;41295;48.518;9.206;2022-12-07T00:30:59;12.32;;;7.07;;
32250;SDS011;41295;48.518;9.206;2022-12-07T00:33:03;11.57;;;7.05;;
32250;SDS011;41295;48.518;9.206;2022-12-07T00:35:06;10.73;;;7.28;;
32250;SDS011;41295;48.518;9.206;2022-12-07T00:37:09;15.60;;;8.32;;
32250;SDS011;41295;48.518;9.206;2022-12-07T00:39:13;13.27;;;6.45;;
32250;SDS011;41295;48.518;9.206;2022-12-07T00:41:17;12.18;;;7.63;;
32250;SDS011;41295;48.518;9.206;2022-12-07T00:43:21;14.27;;;7.95;;
32250;SDS011;41295;48.518;9.206;2022-12-07T00:45:23;11.88;;;7.15;;
32250;SDS011;41295;48.518;9.206;2022-12-07T00:47:26;9.68;;;6.80;;
32250;SDS011;41295;48.518;9.206;2022-12-07T00:49:30;12.73;;;7.70;;
32250;SDS011;41295;48.518;9.206;2022-12-07T00:51:33;12.75;;;7.13;;
32250;SDS011;41295;48.518;9.206;2022-12-07T00:53:36;10.18;;;6.90;;
32250;SDS011;41295;48.518;9.206;2022-12-07T00:55:42;10.82;;;6.25;;
32250;SDS011;41295;48.518;9.206;2022-12-07T00:57:45;10.30;;;6.07;;
32250;SDS011;41295;48.518;9.206;2022-12-07T00:59:47;10.15;;;6.03;;
32250;SDS011;41295;48.518;9.206;2022-12-07T01:01:50;12.05;;;7.05;;
32250;SDS011;41295;48.518;9.206;2022-12-07T01:03:53;10.35;;;6.95;;
32250;SDS011;41295;48.518;9.206;2022-12-07T01:05:57;8.77;;;6.10;;
32250;SDS011;41295;48.518;9.206;2022-12-07T01:08:00;10.27;;;6.63;;
32250;SDS011;41295;48.518;9.206;2022-12-07T01:10:03;9.90;;;7.03;;
32250;SDS011;41295;48.518;9.206;2022-12-07T01:12:06;14.80;;;6.82;;
32250;SDS011;41295;48.518;9.206;2022-12-07T01:14:09;9.27;;;6.75;;
32250;SDS011;41295;48.518;9.206;2022-12-07T01:16:12;12.15;;;6.88;;
32250;SDS011;41295;48.518;9.206;2022-12-07T01:18:17;10.77;;;6.70;;
32250;SDS011;41295;48.518;9.206;2022-12-07T01:20:19;11.25;;;5.90;;
32250;SDS011;41295;48.518;9.206;2022-12-07T01:22:23;12.05;;;6.78;;
32250;SDS011;41295;48.518;9.206;2022-12-07T01:24:26;11.55;;;6.43;;
32250;SDS011;41295;48.518;9.206;2022-12-07T01:26:29;8.80;;;5.93;;
32250;SDS011;41295;48.518;9.206;2022-12-07T01:28:31;10.50;;;5.82;;
32250;SDS011;41295;48.518;9.206;2022-12-07T01:30:34;10.95;;;6.63;;
32250;SDS011;41295;48.518;9.206;2022-12-07T01:32:37;8.73;;;5.65;;
32250;SDS011;41295;48.518;9.206;2022-12-07T01:34:40;9.95;;;6.55;;
32250;SDS011;41295;48.518;9.206;2022-12-07T01:36:42;9.20;;;6.15;;
32250;SDS011;41295;48.518;9.206;2022-12-07T01:38:47;9.63;;;6.63;;
32250;SDS011;41295;48.518;9.206;2022-12-07T01:40:56;9.60;;;6.35;;
32250;SDS011;41295;48.518;9.206;2022-12-07T01:42:59;9.25;;;5.85;;
32250;SDS011;41295;48.518;9.206;2022-12-07T01:47:48;9.98;;;6.38;;
32250;SDS011;41295;48.518;9.206;2022-12-07T01:49:54;10.27;;;6.40;;
32250;SDS011;41295;48.518;9.206;2022-12-07T01:51:58;9.52;;;6.10;;
32250;SDS011;41295;48.518;9.206;2022-12-07T01:54:11;14.45;;;6.45;;
32250;SDS011;41295;48.518;9.206;2022-12-07T01:56:16;13.35;;;6.95;;
32250;SDS011;41295;48.518;9.206;2022-12-07T01:58:23;9.77;;;6.22;;
32250;SDS011;41295;48.518;9.206;2022-12-07T02:00:26;9.50;;;6.57;;
32250;SDS011;41295;48.518;9.206;2022-12-07T02:02:30;9.48;;;6.43;;
32250;SDS011;41295;48.518;9.206;2022-12-07T02:04:35;11.13;;;6.57;;
32250;SDS011;41295;48.518;9.206;2022-12-07T02:06:38;9.43;;;5.57;;
32250;SDS011;41295;48.518;9.206;2022-12-07T02:08:41;10.60;;;6.45;;
32250;SDS011;41295;48.518;9.206;2022-12-07T02:10:45;10.45;;;6.40;;
32250;SDS011;41295;48.518;9.206;2022-12-07T02:12:48;10.27;;;6.72;;
32250;SDS011;41295;48.518;9.206;2022-12-07T02:14:55;9.07;;;6.10;;
32250;SDS011;41295;48.518;9.206;2022-12-07T02:17:01;10.65;;;6.63;;
32250;SDS011;41295;48.518;9.206;2022-12-07T02:21:46;9.70;;;6.53;;
32250;SDS011;41295;48.518;9.206;2022-12-07T02:24:00;9.73;;;6.47;;
32250;SDS011;41295;48.518;9.206;2022-12-07T02:26:28;13.15;;;7.03;;
32250;SDS011;41295;48.518;9.206;2022-12-07T02:28:55;11.82;;;6.18;;
32250;SDS011;41295;48.518;9.206;2022-12-07T02:31:13;11.35;;;7.20;;
32250;SDS011;41295;48.518;9.206;2022-12-07T02:33:22;9.93;;;6.45;;
32250;SDS011;41295;48.518;9.206;2022-12-07T02:35:30;9.70;;;6.13;;
32250;SDS011;41295;48.518;9.206;2022-12-07T02:37:38;11.82;;;6.85;;
32250;SDS011;41295;48.518;9.206;2022-12-07T02:39:46;9.90;;;6.57;;
32250;SDS011;41295;48.518;9.206;2022-12-07T02:41:54;9.77;;;6.68;;
32250;SDS011;41295;48.518;9.206;2022-12-07T02:44:02;12.35;;;7.28;;
32250;SDS011;41295;48.518;9.206;2022-12-07T02:46:09;11.73;;;6.95;;
32250;SDS011;41295;48.518;9.206;2022-12-07T02:48:16;9.18;;;5.88;;
32250;SDS011;41295;48.518;9.206;2022-12-07T02:50:21;9.38;;;6.47;;
32250;SDS011;41295;48.518;9.206;2022-12-07T02:52:24;10.95;;;6.68;;
32250;SDS011;41295;48.518;9.206;2022-12-07T02:54:26;12.18;;;6.72;;
32250;SDS011;41295;48.518;9.206;2022-12-07T02:56:30;16.35;;;7.22;;
32250;SDS011;41295;48.518;9.206;2022-12-07T02:58:43;14.88;;;7.07;;
32250;SDS011;41295;48.518;9.206;2022-12-07T03:01:00;12.80;;;6.63;;
32250;SDS011;41295;48.518;9.206;2022-12-07T03:03:11;12.07;;;7.20;;
32250;SDS011;41295;48.518;9.206;2022-12-07T03:05:26;12.55;;;7.38;;
32250;SDS011;41295;48.518;9.206;2022-12-07T03:07:58;12.60;;;7.50;;
32250;SDS011;41295;48.518;9.206;2022-12-07T03:10:07;12.27;;;7.10;;
32250;SDS011;41295;48.518;9.206;2022-12-07T03:12:15;11.20;;;7.20;;
32250;SDS011;41295;48.518;9.206;2022-12-07T03:14:22;11.05;;;7.28;;
32250;SDS011;41295;48.518;9.206;2022-12-07T03:16:31;12.45;;;8.05;;
32250;SDS011;41295;48.518;9.206;2022-12-07T03:18:38;12.15;;;7.95;;
32250;SDS011;41295;48.518;9.206;2022-12-07T03:20:45;13.40;;;7.63;;
32250;SDS011;41295;48.518;9.206;2022-12-07T03:22:52;9.52;;;7.15;;
32250;SDS011;41295;48.518;9.206;2022-12-07T03:24:57;13.35;;;7.70;;
32250;SDS011;41295;48.518;9.206;2022-12-07T03:27:03;13.43;;;8.10;;
32250;SDS011;41295;48.518;9.206;2022-12-07T03:29:12;11.77;;;7.53;;
32250;SDS011;41295;48.518;9.206;2022-12-07T03:31:26;13.38;;;6.93;;
32250;SDS011;41295;48.518;9.206;2022-12-07T03:33:36;12.00;;;8.05;;
32250;SDS011;41295;48.518;9.206;2022-12-07T03:35:45;10.80;;;7.53;;
32250;SDS011;41295;48.518;9.206;2022-12-07T03:37:54;12.82;;;8.32;;
32250;SDS011;41295;48.518;9.206;2022-12-07T03:40:02;14.85;;;9.18;;
32250;SDS011;41295;48.518;9.206;2022-12-07T03:42:10;12.95;;;7.85;;
32250;SDS011;41295;48.518;9.206;2022-12-07T03:44:13;16.67;;;9.27;;
32250;SDS011;41295;48.518;9.206;2022-12-07T03:46:19;13.38;;;8.27;;
32250;SDS011;41295;48.518;9.206;2022-12-07T03:48:32;15.65;;;9.13;;
32250;SDS011;41295;48.518;9.206;2022-12-07T03:50:41;13.57;;;8.60;;
32250;SDS011;41295;48.518;9.206;2022-12-07T03:52:53;13.20;;;9.10;;
32250;SDS011;41295;48.518;9.206;2022-12-07T03:54:59;15.10;;;9.40;;
32250;SDS011;41295;48.518;9.206;2022-12-07T03:57:07;14.75;;;9.20;;
32250;SDS011;41295;48.518;9.206;2022-12-07T03:59:12;15.10;;;9.32;;
32250;SDS011;41295;48.518;9.206;2022-12-07T04:01:17;16.10;;;9.10;;
32250;SDS011;41295;48.518;9.206;2022-12-07T04:03:20;17.60;;;9.65;;
32250;SDS011;41295;48.518;9.206;2022-12-07T04:05:24;16.20;;;10.13;;
32250;SDS011;41295;48.518;9.206;2022-12-07T04:07:27;16.80;;;10.13;;
32250;SDS011;41295;48.518;9.206;2022-12-07T04:09:30;16.25;;;9.05;;
32250;SDS011;41295;48.518;9.206;2022-12-07T04:11:33;15.93;;;9.02;;
32250;SDS011;41295;48.518;9.206;2022-12-07T04:13:35;15.40;;;9.68;;
32250;SDS011;41295;48.518;9.206;2022-12-07T04:15:52;14.70;;;9.60;;
32250;SDS011;41295;48.518;9.206;2022-12-07T04:17:55;15.05;;;8.60;;
32250;SDS011;41295;48.518;9.206;2022-12-07T04:19:57;14.10;;;8.30;;
32250;SDS011;41295;48.518;9.206;2022-12-07T04:22:03;15.45;;;9.55;;
32250;SDS011;41295;48.518;9.206;2022-12-07T04:24:06;15.13;;;9.20;;
32250;SDS011;41295;48.518;9.206;2022-12-07T04:26:09;15.27;;;9.63;;
32250;SDS011;41295;48.518;9.206;2022-12-07T04:28:12;16.27;;;8.25;;
32250;SDS011;41295;48.518;9.206;2022-12-07T04:30:14;12.75;;;8.20;;
32250;SDS011;41295;48.518;9.206;2022-12-07T04:32:17;13.10;;;8.07;;
32250;SDS011;41295;48.518;9.206;2022-12-07T04:34:20;13.45;;;8.65;;
32250;SDS011;41295;48.518;9.206;2022-12-07T04:36:22;15.05;;;8.75;;
32250;SDS011;41295;48.518;9.206;2022-12-07T04:38:27;14.50;;;9.35;;
32250;SDS011;41295;48.518;9.206;2022-12-07T04:40:29;14.65;;;8.98;;
32250;SDS011;41295;48.518;9.206;2022-12-07T04:42:32;14.70;;;9.27;;
32250;SDS011;41295;48.518;9.206;2022-12-07T04:44:34;16.10;;;9.32;;
32250;SDS011;41295;48.518;9.206;2022-12-07T04:46:37;17.25;;;9.13;;
32250;SDS011;41295;48.518;9.206;2022-12-07T04:48:40;15.07;;;9.45;;
32250;SDS011;41295;48.518;9.206;2022-12-07T04:50:42;16.20;;;9.68;;
32250;SDS011;41295;48.518;9.206;2022-12-07T04:52:46;16.67;;;9.70;;
32250;SDS011;41295;48.518;9.206;2022-12-07T04:54:50;13.38;;;9.02;;
32250;SDS011;41295;48.518;9.206;2022-12-07T04:56:53;15.02;;;9.43;;
32250;SDS011;41295;48.518;9.206;2022-12-07T04:58:56;15.20;;;8.90;;
32250;SDS011;41295;48.518;9.206;2022-12-07T05:00:58;14.77;;;9.23;;
32250;SDS011;41295;48.518;9.206;2022-12-07T05:03:01;16.10;;;9.13;;
32250;SDS011;41295;48.518;9.206;2022-12-07T05:05:04;14.80;;;9.55;;
32250;SDS011;41295;48.518;9.206;2022-12-07T05:07:07;14.75;;;8.52;;
32250;SDS011;41295;48.518;9.206;2022-12-07T05:09:09;17.77;;;9.40;;
32250;SDS011;41295;48.518;9.206;2022-12-07T05:11:13;14.25;;;9.10;;
32250;SDS011;41295;48.518;9.206;2022-12-07T05:13:37;16.42;;;9.93;;
32250;SDS011;41295;48.518;9.206;2022-12-07T05:15:39;16.00;;;9.95;;
32250;SDS011;41295;48.518;9.206;2022-12-07T05:17:43;14.80;;;8.68;;
32250;SDS011;41295;48.518;9.206;2022-12-07T05:19:46;14.27;;;8.48;;
32250;SDS011;41295;48.518;9.206;2022-12-07T05:21:49;15.13;;;8.95;;
32250;SDS011;41295;48.518;9.206;2022-12-07T05:23:51;13.10;;;8.35;;
32250;SDS011;41295;48.518;9.206;2022-12-07T05:25:54;14.68;;;8.68;;
32250;SDS011;41295;48.518;9.206;2022-12-07T05:27:58;17.50;;;10.00;;
32250;SDS011;41295;48.518;9.206;2022-12-07T05:30:01;14.50;;;8.75;;
32250;SDS011;41295;48.518;9.206;2022-12-07T05:32:04;14.27;;;9.35;;
32250;SDS011;41295;48.518;9.206;2022-12-07T05:34:07;18.42;;;9.50;;
32250;SDS011;41295;48.518;9.206;2022-12-07T05:36:10;14.13;;;9.05;;
32250;SDS011;41295;48.518;9.206;2022-12-07T05:38:13;13.68;;;8.15;;
32250;SDS011;41295;48.518;9.206;2022-12-07T05:40:16;14.43;;;8.57;;
32250;SDS011;41295;48.518;9.206;2022-12-07T05:42:20;17.35;;;8.90;;
32250;SDS011;41295;48.518;9.206;2022-12-07T05:44:24;14.20;;;8.65;;
32250;SDS011;41295;48.518;9.206;2022-12-07T05:46:26;14.15;;;9.32;;
32250;SDS011;41295;48.518;9.206;2022-12-07T05:48:29;14.30;;;8.85;;
32250;SDS011;41295;48.518;9.206;2022-12-07T05:50:34;15.20;;;9.05;;
32250;SDS011;41295;48.518;9.206;2022-12-07T05:52:37;18.25;;;10.30;;
32250;SDS011;41295;48.518;9.206;2022-12-07T05:54:40;15.85;;;9.75;;
32250;SDS011;41295;48.518;9.206;2022-12-07T05:56:42;16.77;;;9.30;;
32250;SDS011;41295;48.518;9.206;2022-12-07T05:58:45;17.92;;;10.07;;
32250;SDS011;41295;48.518;9.206;2022-12-07T06:01:08;16.48;;;9.70;;
32250;SDS011;41295;48.518;9.206;2022-12-07T06:03:11;14.55;;;9.38;;
32250;SDS011;41295;48.518;9.206;2022-12-07T06:05:14;17.20;;;9.43;;
32250;SDS011;41295;48.518;9.206;2022-12-07T06:07:16;15.30;;;9.82;;
32250;SDS011;41295;48.518;9.206;2022-12-07T06:09:19;19.02;;;10.18;;
32250;SDS011;41295;48.518;9.206;2022-12-07T06:11:23;17.15;;;9.93;;
32250;SDS011;41295;48.518;9.206;2022-12-07T06:13:43;14.95;;;9.70;;
32250;SDS011;41295;48.518;9.206;2022-12-07T06:15:47;17.55;;;10.27;;
32250;SDS011;41295;48.518;9.206;2022-12-07T06:17:51;23.00;;;12.15;;
32250;SDS011;41295;48.518;9.206;2022-12-07T06:19:54;18.08;;;11.48;;
32250;SDS011;41295;48.518;9.206;2022-12-07T06:21:57;20.50;;;10.23;;
32250;SDS011;41295;48.518;9.206;2022-12-07T06:24:00;18.50;;;10.73;;
32250;SDS011;41295;48.518;9.206;2022-12-07T06:26:03;23.50;;;11.77;;
32250;SDS011;41295;48.518;9.206;2022-12-07T06:28:06;24.48;;;12.45;;
32250;SDS011;41295;48.518;9.206;2022-12-07T06:30:08;30.05;;;12.60;;
32250;SDS011;41295;48.518;9.206;2022-12-07T06:32:11;24.95;;;12.30;;
32250;SDS011;41295;48.518;9.206;2022-12-07T06:34:16;29.45;;;13.35;;
32250;SDS011;41295;48.518;9.206;2022-12-07T06:36:20;25.02;;;12.13;;
32250;SDS011;41295;48.518;9.206;2022-12-07T06:38:27;23.83;;;12.15;;
32250;SDS011;41295;48.518;9.206;2022-12-07T06:40:30;21.42;;;11.38;;
32250;SDS011;41295;48.518;9.206;2022-12-07T06:42:32;20.73;;;10.60;;
32250;SDS011;41295;48.518;9.206;2022-12-07T06:44:35;17.80;;;10.73;;
32250;SDS011;41295;48.518;9.206;2022-12-07T06:46:37;16.65;;;9.85;;
32250;SDS011;41295;48.518;9.206;2022-12-07T06:48:40;16.65;;;9.93;;
32250;SDS011;41295;48.518;9.206;2022-12-07T06:50:45;20.33;;;9.90;;
32250;SDS011;41295;48.518;9.206;2022-12-07T06:52:55;16.55;;;9.63;;
32250;SDS011;41295;48.518;9.206;2022-12-07T06:54:57;17.55;;;9.77;;
32250;SDS011;41295;48.518;9.206;2022-12-07T06:57:00;19.42;;;10.80;;
32250;SDS011;41295;48.518;9.206;2022-12-07T06:59:03;19.67;;;11.10;;
32250;SDS011;41295;48.518;9.206;2022-12-07T07:01:08;23.20;;;11.85;;
32250;SDS011;41295;48.518;9.206;2022-12-07T07:03:12;18.38;;;10.68;;
32250;SDS011;41295;48.518;9.206;2022-12-07T07:05:15;18.42;;;10.70;;
32250;SDS011;41295;48.518;9.206;2022-12-07T07:07:19;20.00;;;10.60;;
32250;SDS011;41295;48.518;9.206;2022-12-07T07:09:21;21.83;;;10.48;;
32250;SDS011;41295;48.518;9.206;2022-12-07T07:11:24;14.48;;;9.20;;
32250;SDS011;41295;48.518;9.206;2022-12-07T07:13:27;17.58;;;8.63;;
32250;SDS011;41295;48.518;9.206;2022-12-07T07:15:30;15.52;;;9.25;;
32250;SDS011;41295;48.518;9.206;2022-12-07T07:17:33;15.43;;;9.20;;
32250;SDS011;41295;48.518;9.206;2022-12-07T07:19:35;17.40;;;9.57;;
32250;SDS011;41295;48.518;9.206;2022-12-07T07:21:38;18.17;;;10.13;;
32250;SDS011;41295;48.518;9.206;2022-12-07T07:23:42;19.58;;;11.20;;
32250;SDS011;41295;48.518;9.206;2022-12-07T07:25:45;19.23;;;10.50;;
32250;SDS011;41295;48.518;9.206;2022-12-07T07:27:47;18.38;;;10.88;;
32250;SDS011;41295;48.518;9.206;2022-12-07T07:29:50;18.58;;;11.10;;
32250;SDS011;41295;48.518;9.206;2022-12-07T07:31:53;17.25;;;9.65;;
32250;SDS011;41295;48.518;9.206;2022-12-07T07:33:55;19.20;;;10.25;;
32250;SDS011;41295;48.518;9.206;2022-12-07T07:35:58;19.55;;;10.00;;
32250;SDS011;41295;48.518;9.206;2022-12-07T07:38:00;17.65;;;10.02;;
32250;SDS011;41295;48.518;9.206;2022-12-07T07:40:06;17.83;;;10.10;;
32250;SDS011;41295;48.518;9.206;2022-12-07T07:42:09;25.15;;;10.90;;
32250;SDS011;41295;48.518;9.206;2022-12-07T07:44:12;21.25;;;11.45;;
32250;SDS011;41295;48.518;9.206;2022-12-07T07:46:15;20.45;;;11.32;;
32250;SDS011;41295;48.518;9.206;2022-12-07T07:48:17;21.23;;;10.30;;
32250;SDS011;41295;48.518;9.206;2022-12-07T07:50:21;18.65;;;10.98;;
32250;SDS011;41295;48.518;9.206;2022-12-07T07:52:24;24.83;;;10.20;;
32250;SDS011;41295;48.518;9.206;2022-12-07T07:54:27;16.73;;;9.57;;
32250;SDS011;41295;48.518;9.206;2022-12-07T07:56:31;18.48;;;10.45;;
32250;SDS011;41295;48.518;9.206;2022-12-07T07:58:33;19.27;;;10.93;;
32250;SDS011;41295;48.518;9.206;2022-12-07T08:00:36;17.65;;;9.85;;
32250;SDS011;41295;48.518;9.206;2022-12-07T08:02:39;17.52;;;9.55;;
32250;SDS011;41295;48.518;9.206;2022-12-07T08:04:44;20.55;;;10.63;;
32250;SDS011;41295;48.518;9.206;2022-12-07T08:06:47;16.63;;;10.02;;
32250;SDS011;41295;48.518;9.206;2022-12-07T08:08:50;21.83;;;10.68;;
32250;SDS011;41295;48.518;9.206;2022-12-07T08:10:52;17.83;;;10.27;;
32250;SDS011;41295;48.518;9.206;2022-12-07T08:12:56;23.20;;;10.27;;
32250;SDS011;41295;48.518;9.206;2022-12-07T08:15:15;16.50;;;9.45;;
32250;SDS011;41295;48.518;9.206;2022-12-07T08:17:18;18.08;;;10.32;;
32250;SDS011;41295;48.518;9.206;2022-12-07T08:19:20;17.13;;;10.32;;
32250;SDS011;41295;48.518;9.206;2022-12-07T08:21:23;15.63;;;9.70;;
32250;SDS011;41295;48.518;9.206;2022-12-07T08:23:26;17.30;;;9.90;;
32250;SDS011;41295;48.518;9.206;2022-12-07T08:25:39;17.73;;;10.18;;
32250;SDS011;41295;48.518;9.206;2022-12-07T08:27:42;18.98;;;9.95;;
32250;SDS011;41295;48.518;9.206;2022-12-07T08:29:46;15.95;;;9.57;;
32250;SDS011;41295;48.518;9.206;2022-12-07T08:31:48;15.70;;;9.57;;
32250;SDS011;41295;48.518;9.206;2022-12-07T08:33:51;16.60;;;9.30;;
32250;SDS011;41295;48.518;9.206;2022-12-07T08:35:54;16.13;;;9.18;;
32250;SDS011;41295;48.518;9.206;2022-12-07T08:37:57;14.30;;;8.68;;
32250;SDS011;41295;48.518;9.206;2022-12-07T08:39:59;19.27;;;9.95;;
32250;SDS011;41295;48.518;9.206;2022-12-07T08:42:02;15.38;;;9.98;;
32250;SDS011;41295;48.518;9.206;2022-12-07T08:44:05;18.52;;;9.65;;
32250;SDS011;41295;48.518;9.206;2022-12-07T08:46:10;17.50;;;9.95;;
32250;SDS011;41295;48.518;9.206;2022-12-07T08:48:21;16.15;;;9.40;;
32250;SDS011;41295;48.518;9.206;2022-12-07T08:50:25;16.70;;;9.18;;
32250;SDS011;41295;48.518;9.206;2022-12-07T08:52:28;15.27;;;9.48;;
32250;SDS011;41295;48.518;9.206;2022-12-07T08:54:32;14.68;;;9.07;;
32250;SDS011;41295;48.518;9.206;2022-12-07T08:56:36;17.58;;;8.80;;
32250;SDS011;41295;48.518;9.206;2022-12-07T08:58:39;17.00;;;9.55;;
32250;SDS011;41295;48.518;9.206;2022-12-07T09:00:42;14.75;;;9.02;;
32250;SDS011;41295;48.518;9.206;2022-12-07T09:02:46;15.85;;;9.25;;
32250;SDS011;41295;48.518;9.206;2022-12-07T09:04:49;16.83;;;9.30;;
32250;SDS011;41295;48.518;9.206;2022-12-07T09:06:52;17.77;;;8.95;;
32250;SDS011;41295;48.518;9.206;2022-12-07T09:08:57;16.13;;;9.23;;
32250;SDS011;41295;48.518;9.206;2022-12-07T09:11:03;17.25;;;9.32;;
32250;SDS011;41295;48.518;9.206;2022-12-07T09:13:05;18.02;;;9.38;;
32250;SDS011;41295;48.518;9.206;2022-12-07T09:15:08;16.52;;;10.15;;
32250;SDS011;41295;48.518;9.206;2022-12-07T09:17:11;19.67;;;10.05;;
32250;SDS011;41295;48.518;9.206;2022-12-07T09:19:16;15.95;;;9.68;;
32250;SDS011;41295;48.518;9.206;2022-12-07T09:21:19;16.98;;;10.07;;
32250;SDS011;41295;48.518;9.206;2022-12-07T09:23:21;23.27;;;10.73;;
32250;SDS011;41295;48.518;9.206;2022-12-07T09:25:24;19.55;;;10.00;;
32250;SDS011;41295;48.518;9.206;2022-12-07T09:27:27;18.58;;;11.23;;
32250;SDS011;41295;48.518;9.206;2022-12-07T09:29:30;22.20;;;10.88;;
32250;SDS011;41295;48.518;9.206;2022-12-07T09:31:35;19.40;;;10.43;;
32250;SDS011;41295;48.518;9.206;2022-12-07T09:33:38;19.30;;;11.35;;
32250;SDS011;41295;48.518;9.206;2022-12-07T09:35:46;17.90;;;9.52;;
32250;SDS011;41295;48.518;9.206;2022-12-07T09:37:49;17.75;;;10.23;;
32250;SDS011;41295;48.518;9.206;2022-12-07T09:39:52;18.25;;;9.82;;
32250;SDS011;41295;48.518;9.206;2022-12-07T09:41:54;17.80;;;10.30;;
32250;SDS011;41295;48.518;9.206;2022-12-07T09:44:02;18.17;;;10.25;;
32250;SDS011;41295;48.518;9.206;2022-12-07T09:46:08;16.58;;;9.70;;
32250;SDS011;41295;48.518;9.206;2022-12-07T09:48:16;20.35;;;10.27;;
32250;SDS011;41295;48.518;9.206;2022-12-07T09:50:23;15.43;;;9.18;;
32250;SDS011;41295;48.518;9.206;2022-12-07T09:52:28;17.00;;;9.75;;
32250;SDS011;41295;48.518;9.206;2022-12-07T09:56:43;15.50;;;9.32;;
32250;SDS011;41295;48.518;9.206;2022-12-07T09:58:46;15.88;;;9.65;;
32250;SDS011;41295;48.518;9.206;2022-12-07T10:00:50;19.75;;;10.32;;
32250;SDS011;41295;48.518;9.206;2022-12-07T10:02:58;18.00;;;10.80;;
32250;SDS011;41295;48.518;9.206;2022-12-07T10:05:03;16.92;;;10.07;;
32250;SDS011;41295;48.518;9.206;2022-12-07T10:07:09;13.98;;;9.00;;
32250;SDS011;41295;48.518;9.206;2022-12-07T10:09:13;12.98;;;8.13;;
32250;SDS011;41295;48.518;9.206;2022-12-07T10:11:17;21.85;;;8.52;;
32250;SDS011;41295;48.518;9.206;2022-12-07T10:13:20;14.52;;;8.57;;
32250;SDS011;41295;48.518;9.206;2022-12-07T10:15:37;14.05;;;8.10;;
32250;SDS011;41295;48.518;9.206;2022-12-07T10:17:47;16.98;;;8.43;;
32250;SDS011;41295;48.518;9.206;2022-12-07T10:19:51;15.02;;;8.43;;
32250;SDS011;41295;48.518;9.206;2022-12-07T10:22:05;16.40;;;8.50;;
32250;SDS011;41295;48.518;9.206;2022-12-07T10:24:14;11.32;;;6.75;;
32250;SDS011;41295;48.518;9.206;2022-12-07T10:26:26;16.58;;;7.10;;
32250;SDS011;41295;48.518;9.206;2022-12-07T10:28:33;16.88;;;7.75;;
32250;SDS011;41295;48.518;9.206;2022-12-07T10:30:46;15.02;;;7.63;;
32250;SDS011;41295;48.518;9.206;2022-12-07T10:35:15;10.57;;;5.75;;
32250;SDS011;41295;48.518;9.206;2022-12-07T10:37:21;9.52;;;5.88;;
32250;SDS011;41295;48.518;9.206;2022-12-07T10:39:30;15.15;;;7.20;;
32250;SDS011;41295;48.518;9.206;2022-12-07T10:41:53;10.30;;;6.72;;
32250;SDS011;41295;48.518;9.206;2022-12-07T10:43:58;9.60;;;5.95;;
32250;SDS011;41295;48.518;9.206;2022-12-07T10:46:07;9.85;;;6.15;;
32250;SDS011;41295;48.518;9.206;2022-12-07T10:48:26;12.50;;;6.82;;
32250;SDS011;41295;48.518;9.206;2022-12-07T10:50:39;10.75;;;6.47;;
32250;SDS011;41295;48.518;9.206;2022-12-07T10:53:13;11.30;;;6.72;;
32250;SDS011;41295;48.518;9.206;2022-12-07T10:55:40;11.32;;;6.88;;
32250;SDS011;41295;48.518;9.206;2022-12-07T10:58:02;13.00;;;6.43;;
32250;SDS011;41295;48.518;9.206;2022-12-07T11:02:25;13.93;;;6.95;;
32250;SDS011;41295;48.518;9.206;2022-12-07T11:04:50;10.65;;;6.75;;
32250;SDS011;41295;48.518;9.206;2022-12-07T11:07:05;10.55;;;6.50;;
32250;SDS011;41295;48.518;9.206;2022-12-07T11:09:21;11.32;;;7.05;;
32250;SDS011;41295;48.518;9.206;2022-12-07T11:11:58;10.10;;;6.82;;
32250;SDS011;41295;48.518;9.206;2022-12-07T11:14:13;13.90;;;6.78;;
32250;SDS011;41295;48.518;9.206;2022-12-07T11:16:30;13.32;;;7.40;;
32250;SDS011;41295;48.518;9.206;2022-12-07T11:18:44;15.70;;;6.95;;
32250;SDS011;41295;48.518;9.206;2022-12-07T11:20:55;12.50;;;7.40;;
32250;SDS011;41295;48.518;9.206;2022-12-07T11:23:09;12.45;;;6.70;;
32250;SDS011;41295;48.518;9.206;2022-12-07T11:25:27;12.20;;;6.80;;
32250;SDS011;41295;48.518;9.206;2022-12-07T11:27:36;14.48;;;7.28;;
32250;SDS011;41295;48.518;9.206;2022-12-07T11:29:47;11.07;;;5.90;;
32250;SDS011;41295;48.518;9.206;2022-12-07T11:32:01;13.27;;;5.80;;
32250;SDS011;41295;48.518;9.206;2022-12-07T11:34:14;9.65;;;6.35;;
32250;SDS011;41295;48.518;9.206;2022-12-07T11:36:31;11.07;;;5.63;;
32250;SDS011;41295;48.518;9.206;2022-12-07T11:38:43;9.80;;;6.03;;
32250;SDS011;41295;48.518;9.206;2022-12-07T11:40:53;10.73;;;6.20;;
32250;SDS011;41295;48.518;9.206;2022-12-07T11:43:17;14.13;;;6.72;;
32250;SDS011;41295;48.518;9.206;2022-12-07T11:45:26;8.57;;;6.00;;
32250;SDS011;41295;48.518;9.206;2022-12-07T11:47:43;13.15;;;6.78;;
32250;SDS011;41295;48.518;9.206;2022-12-07T11:49:51;11.95;;;6.78;;
32250;SDS011;41295;48.518;9.206;2022-12-07T11:51:57;10.40;;;6.82;;
32250;SDS011;41295;48.518;9.206;2022-12-07T11:54:05;9.85;;;6.15;;
32250;SDS011;41295;48.518;9.206;2022-12-07T11:56:15;14.02;;;6.75;;
32250;SDS011;41295;48.518;9.206;2022-12-07T11:58:27;9.82;;;6.22;;
32250;SDS011;41295;48.518;9.206;2022-12-07T12:00:44;12.98;;;6.35;;
32250;SDS011;41295;48.518;9.206;2022-12-07T12:02:49;11.65;;;6.30;;
32250;SDS011;41295;48.518;9.206;2022-12-07T12:05:02;11.73;;;6.03;;
32250;SDS011;41295;48.518;9.206;2022-12-07T12:07:16;11.15;;;6.15;;
32250;SDS011;41295;48.518;9.206;2022-12-07T12:09:45;9.00;;;5.70;;
32250;SDS011;41295;48.518;9.206;2022-12-07T12:12:07;10.75;;;6.85;;
32250;SDS011;41295;48.518;9.206;2022-12-07T12:14:48;13.95;;;6.20;;
32250;SDS011;41295;48.518;9.206;2022-12-07T12:17:08;10.75;;;6.38;;
32250;SDS011;41295;48.518;9.206;2022-12-07T12:19:32;8.98;;;5.75;;
32250;SDS011;41295;48.518;9.206;2022-12-07T12:21:37;10.38;;;5.88;;
32250;SDS011;41295;48.518;9.206;2022-12-07T12:23:41;12.48;;;5.80;;
32250;SDS011;41295;48.518;9.206;2022-12-07T12:25:47;11.13;;;5.60;;
32250;SDS011;41295;48.518;9.206;2022-12-07T12:27:54;9.85;;;5.65;;
32250;SDS011;41295;48.518;9.206;2022-12-07T12:30:01;8.38;;;5.25;;
32250;SDS011;41295;48.518;9.206;2022-12-07T12:32:12;9.18;;;5.95;;
32250;SDS011;41295;48.518;9.206;2022-12-07T12:34:31;9.43;;;5.78;;
32250;SDS011;41295;48.518;9.206;2022-12-07T12:36:50;11.23;;;6.28;;
32250;SDS011;41295;48.518;9.206;2022-12-07T12:44:08;11.60;;;5.88;;
32250;SDS011;41295;48.518;9.206;2022-12-07T12:46:59;10.23;;;6.65;;